Time,TemperatureF,DewpointF,PressureIn,WindDirection,WindDirectionDegrees,WindSpeedMPH,WindSpeedGustMPH,Humidity,HourlyPrecipIn,Conditions,Clouds,dailyrainin,SoftwareType,DateUTC
2013-11-06 00:00:00,33.3,33.3,-100.00,WNW,291,0.0,0.0,100,0.00,n/a,n/a,-99.99,Henriksen +1-Wire,2013-11-06 05:00:00,
2013-11-06 00:10:00,33.5,33.4,-100.00,WNW,291,0.0,0.0,99,0.00,n/a,n/a,-99.99,Henriksen +1-Wire,2013-11-06 05:10:00,
2013-11-06 00:20:00,33.8,33.6,-100.00,WNW,291,0.0,0.0,99,0.00,n/a,n/a,-99.99,Henriksen +1-Wire,2013-11-06 05:20:00,
2013-11-06 00:30:00,34.1,34.0,-100.00,WNW,291,0.0,0.0,99,0.00,n/a,n/a,-99.99,Henriksen +1-Wire,2013-11-06 05:30:00,
2013-11-06 00:40:00,34.4,34.0,-100.00,WNW,291,0.0,0.0,98,0.00,n/a,n/a,-99.99,Henriksen +1-Wire,2013-11-06 05:40:00,
2013-11-06 00:50:00,34.2,33.9,-100.00,WNW,291,0.0,0.0,98,0.00,n/a,n/a,-99.99,Henriksen +1-Wire,2013-11-06 05:50:00,
2013-11-06 01:00:00,34.6,34.2,-100.00,WNW,291,0.0,0.0,98,0.00,n/a,n/a,-99.99,Henriksen +1-Wire,2013-11-06 06:00:00,
2013-11-06 01:10:00,34.6,34.3,-100.00,WNW,291,0.0,0.0,98,0.00,n/a,n/a,-99.99,Henriksen +1-Wire,2013-11-06 06:10:00,
2013-11-06 01:20:00,34.6,34.2,-100.00,WNW,291,0.0,0.0,98,0.00,n/a,n/a,-99.99,Henriksen +1-Wire,2013-11-06 06:20:00,
2013-11-06 01:30:00,34.7,34.1,-100.00,WNW,291,0.0,0.0,97,0.00,n/a,n/a,-99.99,Henriksen +1-Wire,2013-11-06 06:30:00,
2013-11-06 01:40:00,34.6,34.1,-100.00,WNW,291,0.0,0.0,97,0.00,n/a,n/a,-99.99,Henriksen +1-Wire,2013-11-06 06:40:00,
2013-11-06 01:50:00,35.0,34.5,-100.00,WNW,291,0.0,0.0,98,0.00,n/a,n/a,-99.99,Henriksen +1-Wire,2013-11-06 06:50:00,
2013-11-06 02:00:00,35.2,34.6,-100.00,WNW,291,0.0,0.0,97,0.00,n/a,n/a,-99.99,Henriksen +1-Wire,2013-11-06 07:00:00,
2013-11-06 02:10:00,35.2,34.6,-100.00,WNW,291,0.0,0.0,97,0.00,n/a,n/a,-99.99,Henriksen +1-Wire,2013-11-06 07:10:00,
2013-11-06 02:20:00,35.2,34.5,-100.00,WNW,291,0.0,0.0,97,0.00,n/a,n/a,-99.99,Henriksen +1-Wire,2013-11-06 07:20:00,
2013-11-06 02:30:00,35.7,34.7,-100.00,West,266,0.0,0.0,96,0.00,n/a,n/a,-99.99,Henriksen +1-Wire,2013-11-06 07:30:00,
2013-11-06 02:40:00,35.7,34.6,-100.00,WSW,246,0.0,0.0,95,0.00,n/a,n/a,-99.99,Henriksen +1-Wire,2013-11-06 07:40:00,
2013-11-06 02:50:00,35.3,34.3,-100.00,WSW,246,0.0,0.0,95,0.00,n/a,n/a,-99.99,Henriksen +1-Wire,2013-11-06 07:50:00,
2013-11-06 03:00:00,34.8,33.9,-100.00,WSW,246,0.0,0.0,96,0.00,n/a,n/a,-99.99,Henriksen +1-Wire,2013-11-06 08:00:00,
2013-11-06 03:10:00,35.1,34.4,-100.00,WSW,246,0.0,0.0,97,0.00,n/a,n/a,-99.99,Henriksen +1-Wire,2013-11-06 08:10:00,
2013-11-06 03:20:00,35.6,34.8,-100.00,WSW,246,0.0,0.0,96,0.00,n/a,n/a,-99.99,Henriksen +1-Wire,2013-11-06 08:20:00,
2013-11-06 03:30:00,35.5,34.6,-100.00,WSW,246,0.0,0.0,96,0.00,n/a,n/a,-99.99,Henriksen +1-Wire,2013-11-06 08:30:00,
2013-11-06 03:40:00,35.4,34.4,-100.00,WSW,246,0.0,0.0,96,0.00,n/a,n/a,-99.99,Henriksen +1-Wire,2013-11-06 08:40:00,
2013-11-06 03:50:00,35.2,34.5,-100.00,WSW,246,0.0,0.0,96,0.00,n/a,n/a,-99.99,Henriksen +1-Wire,2013-11-06 08:50:00,
2013-11-06 04:00:00,35.3,34.6,-100.00,WSW,246,0.0,0.0,97,0.00,n/a,n/a,-99.99,Henriksen +1-Wire,2013-11-06 09:00:00,
2013-11-06 04:10:00,35.7,35.0,-100.00,WSW,246,0.0,0.0,97,0.00,n/a,n/a,-99.99,Henriksen +1-Wire,2013-11-06 09:10:00,
2013-11-06 04:20:00,35.6,34.9,-100.00,WSW,246,0.0,0.0,97,0.00,n/a,n/a,-99.99,Henriksen +1-Wire,2013-11-06 09:20:00,
2013-11-06 04:30:00,35.4,34.8,-100.00,WSW,246,0.0,0.0,97,0.00,n/a,n/a,-99.99,Henriksen +1-Wire,2013-11-06 09:30:00,
2013-11-06 04:40:00,35.3,34.8,-100.00,WSW,246,0.0,0.0,97,0.00,n/a,n/a,-99.99,Henriksen +1-Wire,2013-11-06 09:40:00,
2013-11-06 04:50:00,34.8,34.3,-100.00,WSW,246,0.0,0.0,98,0.00,n/a,n/a,-99.99,Henriksen +1-Wire,2013-11-06 09:50:00,
2013-11-06 05:00:00,34.3,34.0,-100.00,WSW,246,0.0,0.0,98,0.00,n/a,n/a,-99.99,Henriksen +1-Wire,2013-11-06 10:00:00,
2013-11-06 05:10:00,34.0,33.9,-100.00,WSW,246,0.0,0.0,99,0.00,n/a,n/a,-99.99,Henriksen +1-Wire,2013-11-06 10:10:00,
2013-11-06 05:20:00,34.6,34.5,-100.00,WSW,247,0.0,0.0,99,0.00,n/a,n/a,-99.99,Henriksen +1-Wire,2013-11-06 10:20:00,
2013-11-06 05:30:00,34.9,34.9,-100.00,WSW,246,0.0,0.0,99,0.00,n/a,n/a,-99.99,Henriksen +1-Wire,2013-11-06 10:30:00,
2013-11-06 05:40:00,35.0,34.9,-100.00,WSW,246,0.0,0.0,99,0.00,n/a,n/a,-99.99,Henriksen +1-Wire,2013-11-06 10:40:00,
2013-11-06 05:50:00,35.1,35.1,-100.00,WSW,246,0.0,0.0,100,0.00,n/a,n/a,-99.99,Henriksen +1-Wire,2013-11-06 10:50:00,
2013-11-06 06:00:00,35.1,35.1,-100.00,WSW,246,0.0,0.0,100,0.00,n/a,n/a,-99.99,Henriksen +1-Wire,2013-11-06 11:00:00,
2013-11-06 06:10:00,34.9,34.9,-100.00,WSW,246,0.0,0.0,100,0.00,n/a,n/a,-99.99,Henriksen +1-Wire,2013-11-06 11:10:00,
2013-11-06 06:20:00,35.0,35.0,-100.00,WSW,246,0.0,0.0,100,0.00,n/a,n/a,-99.99,Henriksen +1-Wire,2013-11-06 11:20:00,
2013-11-06 06:30:00,35.0,35.0,-100.00,WSW,246,0.0,0.0,100,0.00,n/a,n/a,-99.99,Henriksen +1-Wire,2013-11-06 11:30:00,
2013-11-06 06:40:00,34.9,34.9,-100.00,WSW,246,0.0,0.0,100,0.00,n/a,n/a,-99.99,Henriksen +1-Wire,2013-11-06 11:40:00,
2013-11-06 06:50:00,35.1,35.1,-100.00,WSW,246,0.0,0.0,100,0.00,n/a,n/a,-99.99,Henriksen +1-Wire,2013-11-06 11:50:00,
2013-11-06 07:00:00,35.2,35.2,-100.00,WSW,246,0.0,0.0,100,0.00,n/a,n/a,-99.99,Henriksen +1-Wire,2013-11-06 12:00:00,
2013-11-06 07:10:00,35.3,35.3,-100.00,WSW,246,0.0,0.0,100,0.00,n/a,n/a,-99.99,Henriksen +1-Wire,2013-11-06 12:10:00,
2013-11-06 07:20:00,35.6,35.6,-100.00,WSW,246,0.0,0.0,100,0.00,n/a,n/a,-99.99,Henriksen +1-Wire,2013-11-06 12:20:00,
2013-11-06 07:30:00,36.2,36.2,-100.00,WSW,246,0.0,0.0,100,0.00,n/a,n/a,-99.99,Henriksen +1-Wire,2013-11-06 12:30:00,
2013-11-06 07:40:00,36.6,36.5,-100.00,WSW,246,0.0,0.0,99,0.00,n/a,n/a,-99.99,Henriksen +1-Wire,2013-11-06 12:40:00,
2013-11-06 07:50:00,36.9,36.8,-100.00,WSW,246,0.0,0.0,99,0.00,n/a,n/a,-99.99,Henriksen +1-Wire,2013-11-06 12:50:00,
2013-11-06 08:00:00,38.3,38.1,-100.00,WSW,246,0.0,0.0,99,0.00,n/a,n/a,-99.99,Henriksen +1-Wire,2013-11-06 13:00:00,
2013-11-06 08:10:00,39.8,39.0,-100.00,WSW,246,0.0,2.4,96,0.00,n/a,n/a,-99.99,Henriksen +1-Wire,2013-11-06 13:10:00,
2013-11-06 08:20:00,40.5,38.8,-100.00,WSW,246,0.0,0.0,93,0.00,n/a,n/a,-99.99,Henriksen +1-Wire,2013-11-06 13:20:00,
2013-11-06 08:30:00,40.9,38.7,-100.00,SSW,200,0.1,1.6,91,0.00,n/a,n/a,-99.99,Henriksen +1-Wire,2013-11-06 13:30:00,
2013-11-06 08:40:00,42.0,39.4,-100.00,WSW,246,1.3,4.0,90,0.00,n/a,n/a,-99.99,Henriksen +1-Wire,2013-11-06 13:40:00,
2013-11-06 08:50:00,43.4,40.2,-100.00,WSW,247,1.7,6.4,88,0.00,n/a,n/a,-99.99,Henriksen +1-Wire,2013-11-06 13:50:00,
2013-11-06 09:00:00,44.4,40.8,-100.00,North,355,0.0,2.4,87,0.00,n/a,n/a,-99.99,Henriksen +1-Wire,2013-11-06 14:00:00,
2013-11-06 09:10:00,45.0,41.0,-100.00,West,279,0.0,4.0,85,0.00,n/a,n/a,-99.99,Henriksen +1-Wire,2013-11-06 14:10:00,
2013-11-06 09:20:00,45.1,41.0,-100.00,WSW,249,0.2,3.2,85,0.00,n/a,n/a,-99.99,Henriksen +1-Wire,2013-11-06 14:20:00,
2013-11-06 09:30:00,46.0,41.7,-100.00,West,263,0.2,6.5,84,0.00,n/a,n/a,-99.99,Henriksen +1-Wire,2013-11-06 14:30:00,
2013-11-06 09:40:00,47.1,42.3,-100.00,NW,324,2.1,4.8,83,0.00,n/a,n/a,-99.99,Henriksen +1-Wire,2013-11-06 14:40:00,
2013-11-06 09:50:00,47.8,42.7,-100.00,WNW,287,0.8,5.6,82,0.00,n/a,n/a,-99.99,Henriksen +1-Wire,2013-11-06 14:50:00,
2013-11-06 10:00:00,48.5,42.9,-100.00,West,281,0.4,4.1,80,0.00,n/a,n/a,-99.99,Henriksen +1-Wire,2013-11-06 15:00:00,
2013-11-06 10:10:00,48.8,42.8,-100.00,West,264,1.0,8.1,79,0.00,n/a,n/a,-99.99,Henriksen +1-Wire,2013-11-06 15:10:00,
2013-11-06 10:20:00,49.0,42.8,-100.00,West,267,0.1,3.2,79,0.00,n/a,n/a,-99.99,Henriksen +1-Wire,2013-11-06 15:20:00,
2013-11-06 10:30:00,49.6,43.2,-100.00,West,261,3.5,5.7,78,0.00,n/a,n/a,-99.99,Henriksen +1-Wire,2013-11-06 15:30:00,
2013-11-06 10:40:00,49.7,43.1,-100.00,WNW,283,0.4,4.8,77,0.00,n/a,n/a,-99.99,Henriksen +1-Wire,2013-11-06 15:40:00,
2013-11-06 10:50:00,50.4,43.5,-100.00,WNW,291,1.6,4.9,77,0.00,n/a,n/a,-99.99,Henriksen +1-Wire,2013-11-06 15:50:00,
2013-11-06 11:00:00,50.9,43.9,-100.00,WSW,247,1.0,4.1,76,0.00,n/a,n/a,-99.99,Henriksen +1-Wire,2013-11-06 16:00:00,
2013-11-06 11:10:00,51.6,44.3,-100.00,West,264,2.7,7.1,75,0.00,n/a,n/a,-99.99,Henriksen +1-Wire,2013-11-06 16:10:00,
2013-11-06 11:20:00,51.6,44.0,-100.00,West,272,4.2,8.1,75,0.00,n/a,n/a,-99.99,Henriksen +1-Wire,2013-11-06 16:20:00,
2013-11-06 11:30:00,52.3,44.5,-100.00,WSW,257,1.2,8.1,74,0.00,n/a,n/a,-99.99,Henriksen +1-Wire,2013-11-06 16:30:00,
2013-11-06 11:40:00,53.1,44.9,-100.00,West,264,3.9,7.3,73,0.00,n/a,n/a,-99.99,Henriksen +1-Wire,2013-11-06 16:40:00,
2013-11-06 11:50:00,53.6,44.9,-100.00,West,265,2.1,5.7,72,0.00,n/a,n/a,-99.99,Henriksen +1-Wire,2013-11-06 16:50:00,
2013-11-06 12:00:00,54.1,44.9,-100.00,WSW,256,3.9,9.7,70,0.00,n/a,n/a,-99.99,Henriksen +1-Wire,2013-11-06 17:00:00,
2013-11-06 12:10:00,55.3,45.4,-100.00,West,277,2.1,7.3,69,0.00,n/a,n/a,-99.99,Henriksen +1-Wire,2013-11-06 17:10:00,
2013-11-06 12:20:00,55.4,45.0,-100.00,WSW,257,2.5,5.6,67,0.00,n/a,n/a,-99.99,Henriksen +1-Wire,2013-11-06 17:20:00,
2013-11-06 12:30:00,55.7,44.8,-100.00,West,263,1.6,8.9,66,0.00,n/a,n/a,-99.99,Henriksen +1-Wire,2013-11-06 17:30:00,
2013-11-06 12:40:00,55.1,44.1,-100.00,West,276,2.4,8.0,66,0.00,n/a,n/a,-99.99,Henriksen +1-Wire,2013-11-06 17:40:00,
2013-11-06 12:50:00,55.5,44.5,-100.00,West,259,2.3,8.1,66,0.00,n/a,n/a,-99.99,Henriksen +1-Wire,2013-11-06 17:50:00,
2013-11-06 13:00:00,56.6,44.9,-100.00,SW,234,2.9,8.1,64,0.00,n/a,n/a,-99.99,Henriksen +1-Wire,2013-11-06 18:00:00,
2013-11-06 13:10:00,56.6,44.5,-100.00,West,264,4.5,9.7,63,0.00,n/a,n/a,-99.99,Henriksen +1-Wire,2013-11-06 18:10:00,
2013-11-06 13:20:00,56.4,44.4,-100.00,WSW,258,2.8,9.7,63,0.00,n/a,n/a,-99.99,Henriksen +1-Wire,2013-11-06 18:20:00,
2013-11-06 13:30:00,57.1,44.7,-100.00,West,263,2.3,9.7,62,0.00,n/a,n/a,-99.99,Henriksen +1-Wire,2013-11-06 18:30:00,
2013-11-06 13:40:00,57.2,43.8,-100.00,West,265,4.7,10.5,60,0.00,n/a,n/a,-99.99,Henriksen +1-Wire,2013-11-06 18:40:00,
2013-11-06 13:50:00,57.1,30.4,-100.00,WNW,289,1.0,7.3,35,0.00,n/a,n/a,-99.99,Henriksen +1-Wire,2013-11-06 18:50:00,
2013-11-06 14:00:00,56.9,38.0,-100.00,West,279,1.6,7.3,48,0.00,n/a,n/a,-99.99,Henriksen +1-Wire,2013-11-06 19:00:00,
2013-11-06 14:10:00,57.2,42.0,-100.00,West,269,0.9,6.4,56,0.00,n/a,n/a,-99.99,Henriksen +1-Wire,2013-11-06 19:10:00,
2013-11-06 14:20:00,57.3,43.2,-100.00,West,268,0.8,8.9,58,0.00,n/a,n/a,-99.99,Henriksen +1-Wire,2013-11-06 19:20:00,
2013-11-06 14:30:00,57.0,43.3,-100.00,WNW,301,3.1,5.7,59,0.00,n/a,n/a,-99.99,Henriksen +1-Wire,2013-11-06 19:30:00,
2013-11-06 14:40:00,57.3,43.7,-100.00,WNW,282,2.5,6.4,60,0.00,n/a,n/a,-99.99,Henriksen +1-Wire,2013-11-06 19:40:00,
2013-11-06 14:50:00,57.8,43.9,-100.00,WNW,284,0.8,7.3,59,0.00,n/a,n/a,-99.99,Henriksen +1-Wire,2013-11-06 19:50:00,
2013-11-06 15:00:00,57.4,43.6,-100.00,West,278,0.7,5.7,59,0.00,n/a,n/a,-99.99,Henriksen +1-Wire,2013-11-06 20:00:00,
2013-11-06 15:10:00,57.5,43.8,-100.00,WSW,254,2.6,4.9,59,0.00,n/a,n/a,-99.99,Henriksen +1-Wire,2013-11-06 20:10:00,
2013-11-06 15:20:00,57.5,43.7,-100.00,West,270,2.0,5.7,59,0.00,n/a,n/a,-99.99,Henriksen +1-Wire,2013-11-06 20:20:00,
2013-11-06 15:30:00,57.0,43.4,-100.00,South,178,1.4,4.8,60,0.00,n/a,n/a,-99.99,Henriksen +1-Wire,2013-11-06 20:30:00,
2013-11-06 15:40:00,56.6,43.4,-100.00,WSW,249,0.0,3.2,61,0.00,n/a,n/a,-99.99,Henriksen +1-Wire,2013-11-06 20:40:00,
2013-11-06 15:50:00,55.8,43.2,-100.00,NNW,327,1.0,4.7,62,0.00,n/a,n/a,-99.99,Henriksen +1-Wire,2013-11-06 20:50:00,
2013-11-06 16:00:00,55.4,43.1,-100.00,West,268,1.7,5.6,63,0.00,n/a,n/a,-99.99,Henriksen +1-Wire,2013-11-06 21:00:00,
2013-11-06 16:10:00,55.3,43.1,-100.00,WSW,248,0.0,5.6,63,0.00,n/a,n/a,-99.99,Henriksen +1-Wire,2013-11-06 21:10:00,
2013-11-06 16:20:00,54.5,42.8,-100.00,West,271,0.1,3.4,64,0.00,n/a,n/a,-99.99,Henriksen +1-Wire,2013-11-06 21:20:00,
2013-11-06 16:30:00,53.1,42.1,-100.00,WSW,256,0.0,0.0,65,0.00,n/a,n/a,-99.99,Henriksen +1-Wire,2013-11-06 21:30:00,
2013-11-06 16:40:00,51.4,41.8,-100.00,West,269,0.0,0.0,69,0.00,n/a,n/a,-99.99,Henriksen +1-Wire,2013-11-06 21:40:00,
2013-11-06 16:50:00,50.3,41.9,-100.00,West,269,0.0,0.0,72,0.00,n/a,n/a,-99.99,Henriksen +1-Wire,2013-11-06 21:50:00,
2013-11-06 17:00:00,50.3,42.8,-100.00,West,269,0.0,0.0,75,0.00,n/a,n/a,-99.99,Henriksen +1-Wire,2013-11-06 22:00:00,
2013-11-06 17:10:00,50.0,42.9,-100.00,West,269,0.0,0.0,76,0.00,n/a,n/a,-99.99,Henriksen +1-Wire,2013-11-06 22:10:00,
2013-11-06 17:20:00,49.9,43.3,-100.00,West,269,0.0,0.0,77,0.00,n/a,n/a,-99.99,Henriksen +1-Wire,2013-11-06 22:20:00,
2013-11-06 17:30:00,49.4,43.2,-100.00,West,269,0.0,0.0,78,0.00,n/a,n/a,-99.99,Henriksen +1-Wire,2013-11-06 22:30:00,
2013-11-06 17:40:00,49.1,43.2,-100.00,West,269,0.0,0.0,79,0.00,n/a,n/a,-99.99,Henriksen +1-Wire,2013-11-06 22:40:00,
2013-11-06 17:50:00,48.8,43.1,-100.00,West,269,0.0,0.0,80,0.00,n/a,n/a,-99.99,Henriksen +1-Wire,2013-11-06 22:50:00,
2013-11-06 18:00:00,48.7,43.2,-100.00,West,269,0.0,0.0,81,0.00,n/a,n/a,-99.99,Henriksen +1-Wire,2013-11-06 23:00:00,
2013-11-06 18:10:00,48.4,43.1,-100.00,West,269,0.0,0.0,81,0.00,n/a,n/a,-99.99,Henriksen +1-Wire,2013-11-06 23:10:00,
2013-11-06 18:20:00,48.0,42.9,-100.00,West,269,0.0,0.0,82,0.00,n/a,n/a,-99.99,Henriksen +1-Wire,2013-11-06 23:20:00,
2013-11-06 18:30:00,48.0,43.1,-100.00,West,269,0.0,0.0,82,0.00,n/a,n/a,-99.99,Henriksen +1-Wire,2013-11-06 23:30:00,
2013-11-06 18:40:00,47.9,43.2,-100.00,West,269,0.0,0.0,83,0.00,n/a,n/a,-99.99,Henriksen +1-Wire,2013-11-06 23:40:00,
2013-11-06 18:50:00,47.7,43.1,-100.00,West,269,0.0,0.0,84,0.00,n/a,n/a,-99.99,Henriksen +1-Wire,2013-11-06 23:50:00,
2013-11-06 19:00:00,47.9,43.2,-100.00,WNW,303,0.0,0.8,83,0.00,n/a,n/a,-99.99,Henriksen +1-Wire,2013-11-07 00:00:00,
2013-11-06 19:10:00,47.8,43.0,-100.00,NW,314,0.0,0.0,83,0.00,n/a,n/a,-99.99,Henriksen +1-Wire,2013-11-07 00:10:00,
2013-11-06 19:20:00,48.1,43.4,-100.00,NNE,21,0.1,3.2,83,0.00,n/a,n/a,-99.99,Henriksen +1-Wire,2013-11-07 00:20:00,
2013-11-06 19:30:00,49.4,44.1,-100.00,WSW,241,0.0,0.8,81,0.00,n/a,n/a,-99.99,Henriksen +1-Wire,2013-11-07 00:30:00,
2013-11-06 19:40:00,49.5,43.8,-100.00,SW,224,0.0,0.0,80,0.00,n/a,n/a,-99.99,Henriksen +1-Wire,2013-11-07 00:40:00,
2013-11-06 19:50:00,49.9,44.0,-100.00,WSW,238,0.0,4.1,79,0.00,n/a,n/a,-99.99,Henriksen +1-Wire,2013-11-07 00:50:00,
2013-11-06 20:00:00,50.2,44.0,-100.00,ENE,60,0.0,2.4,79,0.00,n/a,n/a,-99.99,Henriksen +1-Wire,2013-11-07 01:00:00,
2013-11-06 20:10:00,50.5,44.2,-100.00,ESE,122,0.4,2.4,78,0.00,n/a,n/a,-99.99,Henriksen +1-Wire,2013-11-07 01:10:00,
2013-11-06 20:20:00,50.9,44.5,-100.00,SW,224,1.0,5.6,78,0.00,n/a,n/a,-99.99,Henriksen +1-Wire,2013-11-07 01:20:00,
2013-11-06 20:30:00,51.0,44.5,-100.00,ESE,113,0.0,4.8,78,0.00,n/a,n/a,-99.99,Henriksen +1-Wire,2013-11-07 01:30:00,
2013-11-06 20:40:00,50.9,44.5,-100.00,West,265,0.1,4.0,78,0.00,n/a,n/a,-99.99,Henriksen +1-Wire,2013-11-07 01:40:00,
2013-11-06 20:50:00,51.5,45.2,-100.00,ESE,118,0.1,6.3,78,0.00,n/a,n/a,-99.99,Henriksen +1-Wire,2013-11-07 01:50:00,
2013-11-06 21:00:00,51.4,45.2,-100.00,ESE,102,0.4,4.1,79,0.00,n/a,n/a,-99.99,Henriksen +1-Wire,2013-11-07 02:00:00,
2013-11-06 21:10:00,51.5,45.4,-100.00,WSW,249,0.0,5.7,79,0.00,n/a,n/a,-99.99,Henriksen +1-Wire,2013-11-07 02:10:00,
2013-11-06 21:20:00,51.0,45.2,-100.00,SW,234,0.5,5.6,80,0.00,n/a,n/a,-99.99,Henriksen +1-Wire,2013-11-07 02:20:00,
2013-11-06 21:30:00,51.2,45.8,-100.00,WSW,255,0.4,7.3,81,0.00,n/a,n/a,-99.99,Henriksen +1-Wire,2013-11-07 02:30:00,
2013-11-06 21:40:00,51.5,46.4,-100.00,West,265,3.6,7.3,82,0.00,n/a,n/a,-99.99,Henriksen +1-Wire,2013-11-07 02:40:00,
2013-11-06 21:50:00,51.5,46.7,-100.00,SW,225,0.3,5.6,83,0.00,n/a,n/a,-99.99,Henriksen +1-Wire,2013-11-07 02:50:00,
2013-11-06 22:00:00,51.6,47.0,-100.00,West,262,0.2,6.4,84,0.00,n/a,n/a,-99.99,Henriksen +1-Wire,2013-11-07 03:00:00,
2013-11-06 22:10:00,51.4,47.1,-100.00,WSW,254,3.4,8.1,85,0.00,n/a,n/a,-99.99,Henriksen +1-Wire,2013-11-07 03:10:00,
2013-11-06 22:20:00,51.5,47.5,-100.00,WNW,288,1.7,8.1,85,0.00,n/a,n/a,-99.99,Henriksen +1-Wire,2013-11-07 03:20:00,
2013-11-06 22:30:00,51.4,47.6,-100.00,WSW,249,2.0,5.6,86,0.00,n/a,n/a,-99.99,Henriksen +1-Wire,2013-11-07 03:30:00,
2013-11-06 22:40:00,51.3,47.8,-100.00,WSW,255,0.2,4.1,87,0.00,n/a,n/a,-99.99,Henriksen +1-Wire,2013-11-07 03:40:00,
2013-11-06 22:50:00,51.0,47.8,-100.00,WSW,242,0.5,4.0,88,0.00,n/a,n/a,-99.99,Henriksen +1-Wire,2013-11-07 03:50:00,
2013-11-06 23:00:00,50.7,47.7,-100.00,East,87,1.1,4.1,89,0.00,n/a,n/a,-99.99,Henriksen +1-Wire,2013-11-07 04:00:00,
2013-11-06 23:10:00,50.8,48.0,-100.00,West,267,0.0,4.8,89,0.00,n/a,n/a,-99.99,Henriksen +1-Wire,2013-11-07 04:10:00,
2013-11-06 23:20:00,50.7,47.8,-100.00,West,266,0.0,6.4,89,0.00,n/a,n/a,-99.99,Henriksen +1-Wire,2013-11-07 04:20:00,
2013-11-06 23:30:00,50.4,47.7,-100.00,WNW,283,0.0,3.2,90,0.00,n/a,n/a,-99.99,Henriksen +1-Wire,2013-11-07 04:30:00,
2013-11-06 23:40:00,49.9,47.6,-100.00,WSW,250,0.1,0.8,91,0.00,n/a,n/a,-99.99,Henriksen +1-Wire,2013-11-07 04:40:00,
2013-11-06 23:50:00,50.0,47.9,-100.00,NW,306,0.1,3.2,92,0.00,n/a,n/a,-99.99,Henriksen +1-Wire,2013-11-07 04:50:00,